Merle K (Mudhole) Smith Airport Cordova US
ICAO: PACV
IATA:
Category: Medium
Scheduled Services:

Elevation: 54 ft
TransAlt. 18000 ft.

Airport Communications:
ANCHORAGE APP/DEP:133.6
ASOS:134.8
CTAF:123.6
JUNEAU RDO:122.2

PACV Zoom In..

Runways:

(A) RW 09 length 7500 ft width 150 ft
---- / hdg 95

(B) RW 16 length 1899 ft width 30 ft
---- / hdg 162

(C) RW 27 length 7500 ft width 150 ft
ILS 110.70 / hdg 275

(D) RW 34 length 1899 ft width 30 ft
---- / hdg 342

Location; PACV
Day. 25 / Time. 11.53 Zulu
* Altimeter: 30.07
* Temperature: 02° c. 35.6°f.
* Wind from: 080° Speed 04 kn.
Dewpoint: 02° c.
Visibility: 10 Statute Miles.
Clouds: Overcast 2000 ft.

PACV 251153Z 08004KT 10SM OVC020 02/02 A3007 RMK AO2 RAE41 SLP181 P0002 60039 70231 T00220022 10028 20006 51021


Wind From 080°
Speed 04 kn.

  YouTube Music Video
 
jpsmedia.com for Web Design  worldairports.se 2018   terms of use